Nearby METAR Reports

 

KLXT - Lees Summit Muni, Missouri, USA
Distance from station: E 5mi, 9km
Updated: Fri, 19-Sep-2014 10:45am CDT
Mist, Overcast
Mist, Overcast
 Wind from S
Wind: S 7 mph , 11 km/h
Temperature: 64°F , 18°C
Dew Point: 63°F , 17°C
Humidity: 94%
Barometer: 30.05 inHg , 1017.6 hPa
Summary: Mist
Clouds: Overcast
Visibility: 3 miles , 5 km
Cloud details: Overcast 400 ft
2014/09/19 15:45 KLXT 191545Z AUTO 17006KT 3SM BR OVC004 18/17 A3005 RMK AO2 T01780167
KMKC - Kansas City/Dntn, Missouri, USA
Distance from station: NW 12mi, 19km
Updated: Fri, 19-Sep-2014 9:54am CDT
Mist, Overcast
Mist, Overcast
 Wind from S
Wind: S 8 mph , 13 km/h
Temperature: 66°F , 19°C
Dew Point: 63°F , 17°C
Humidity: 88%
Barometer: 30.03 inHg , 1016.9 hPa
Summary: Mist
Clouds: Overcast
Visibility: 4 miles , 6 km
Cloud details: Overcast 500 ft
2014/09/19 14:54 KMKC 191454Z 17007KT 4SM BR OVC005 19/17 A3003 RMK AO2 SLP165 T01890172 51005
 
KIXD - Olathe/Industria, Kansas, USA
Distance from station: WSW 25mi, 41km
Updated: Fri, 19-Sep-2014 10:39am CDT
Mist, Overcast
Mist, Overcast
 Wind from S
Wind: S 9 mph , 15 km/h
Temperature: 64°F , 18°C
Dew Point: 64°F , 18°C
Humidity: 100%
Barometer: 30.04 inHg , 1017.3 hPa
Summary: Mist
Clouds: Overcast
Visibility: 1 mile , 2 km
Cloud details: Overcast 200 ft
2014/09/19 15:39 KIXD 191539Z 17008KT 1SM BR OVC002 18/18 A3004 RMK AO2 T01780178
KMCI - Kansas City/Intl, Missouri, USA
Distance from station: NW 26mi, 42km
Updated: Fri, 19-Sep-2014 9:53am CDT
Mist, Overcast
Mist, Overcast
 Wind from S
Wind: S 9 mph , 15 km/h
Temperature: 64°F , 18°C
Dew Point: 63°F , 17°C
Humidity: 94%
Barometer: 30.03 inHg , 1016.9 hPa
Summary: Mist
Clouds: Overcast
Visibility: 1 1/2 miles , 2 km
Cloud details: Overcast 400 ft
2014/09/19 14:53 KMCI 191453Z 17008KT 1 1/2SM BR OVC004 18/17 A3003 RMK AO2 SFC VIS 4 SLP164 T01780172 53004
 
KRCM - Warrensburg Skyh, Missouri, USA
Distance from station: ESE 38mi, 62km
Updated: Fri, 19-Sep-2014 10:15am CDT
Overcast
Overcast
 Wind from ESE
Wind: ESE 9 mph , 15 km/h
Temperature: 64°F , 18°C
Dew Point: 63°F , 17°C
Humidity: 94%
Barometer: 30.05 inHg , 1017.6 hPa
Clouds: Overcast
Visibility: 7 miles , 11 km
Cloud details: Partly cloudy 800 ft
Overcast 1800 ft
2014/09/19 15:15 KRCM 191515Z AUTO 12008KT 7SM SCT008 OVC018 18/17 A3005 RMK AO2
KLWC - Lawrence, Kansas, USA
Distance from station: W 40mi, 65km
Updated: Fri, 19-Sep-2014 10:44am CDT
Mist, Overcast
Mist, Overcast
 Wind from S
Wind: S 7 mph , 11 km/h
Temperature: 64°F , 18°C
Dew Point: 63°F , 17°C
Humidity: 94%
Barometer: 30.03 inHg , 1016.9 hPa
Summary: Mist
Clouds: Overcast
Visibility: 3 miles , 5 km
Cloud details: Overcast 500 ft
2014/09/19 15:44 KLWC 191544Z AUTO 18006KT 3SM BR OVC005 18/17 A3003 RMK AO2 T01830172
 
KSZL - Whiteman Afb, Missouri, USA
Distance from station: ESE 53mi, 86km
Updated: Fri, 19-Sep-2014 9:58am CDT
Overcast
Overcast
 Wind from SSE
Wind: SSE 7 mph , 11 km/h
Temperature: 64°F , 18°C
Dew Point: 63°F , 17°C
Humidity: 94%
Barometer: 30.06 inHg , 1017.9 hPa
Clouds: Overcast
Visibility: 9 miles , 14 km
Cloud details: Overcast 2300 ft
2014/09/19 14:58 KSZL 191458Z 16006KT 9SM OVC023 18/17 A3006 RMK AO2A SLP179 T01820165 53007 $
KSTJ - St. Joseph, Missouri, USA
Distance from station: NNW 59mi, 95km
Updated: Fri, 19-Sep-2014 9:53am CDT
Mist, Overcast
Mist, Overcast
 Wind from S
Wind: S 10 mph , 17 km/h
Temperature: 64°F , 18°C
Dew Point: 63°F , 17°C
Humidity: 94%
Barometer: 30.02 inHg , 1016.6 hPa
Summary: Mist
Clouds: Overcast
Visibility: 6 miles , 10 km
Cloud details: Overcast 800 ft
2014/09/19 14:53 KSTJ 191453Z 17009KT 6SM BR OVC008 18/17 A3002 RMK AO2 SLP162 T01830167 51001
 
KGLY - Clinton, Missouri, USA
Distance from station: SE 61mi, 98km
Updated: Fri, 19-Sep-2014 10:35am CDT
Mist, Overcast
Mist, Overcast
 Wind from SE
Wind: SE 6 mph , 9 km/h
Temperature: 66°F , 19°C
Dew Point: 64°F , 18°C
Humidity: 94%
Barometer: 30.07 inHg , 1018.3 hPa
Summary: Mist
Clouds: Overcast
Visibility: 6 miles , 10 km
Cloud details: Overcast 3000 ft
2014/09/19 15:35 KGLY 191535Z AUTO 13005KT 6SM BR OVC030 19/18 A3007 RMK AO2
KFOE - Topeka/Forbes, Kansas, USA
Distance from station: W 64mi, 103km
Updated: Fri, 19-Sep-2014 9:53am CDT
Mist, Overcast
Mist, Overcast
 Wind from S
Wind: S 8 mph , 13 km/h
Temperature: 64°F , 18°C
Dew Point: 64°F , 18°C
Humidity: 100%
Barometer: 30.02 inHg , 1016.6 hPa
Summary: Mist
Clouds: Overcast
Visibility: 3 miles , 5 km
Cloud details: Overcast 200 ft
2014/09/19 14:53 KFOE 191453Z 17007KT 3SM BR OVC002 18/18 A3002 RMK AO2 SLP159 T01830178 51002
 
KDMO - Sedalia, Missouri, USA
Distance from station: ESE 72mi, 116km
Updated: Fri, 19-Sep-2014 10:26am CDT
Mostly cloudy
Mostly cloudy
 Wind from SSE
Wind: SSE 9 mph , 15 km/h
Temperature: 70°F , 21°C
Dew Point: 61°F , 16°C
Humidity: 73%
Barometer: 30.08 inHg , 1018.6 hPa
Clouds: Mostly cloudy
Visibility: 7 miles , 11 km
Cloud details: Mostly cloudy 2700 ft
2014/09/19 15:26 KDMO 191526Z AUTO 15008KT 7SM BKN027 21/16 A3008 RMK AO2 T02110161
KCDJ - Chillicothe, Missouri, USA
Distance from station: NE 74mi, 120km
Updated: Fri, 19-Sep-2014 9:52am CDT

 Wind from SSE
Wind: SSE 7 mph , 11 km/h
Temperature: 66°F , 19°C
Dew Point: 61°F , 16°C
Humidity: 83%
Barometer: 30.05 inHg , 1017.6 hPa
2014/09/19 14:52 KCDJ 191452Z AUTO 15006KT 19/16 A3005 RMK AO1 SLP171 T01940161 50001
 
KFNB - Falls City/Brenn, Nebraska, USA
Distance from station: NW 96mi, 154km
Updated: Fri, 19-Sep-2014 9:53am CDT
Overcast
Overcast
 Wind from SSE
Wind: SSE 14 mph , 22 km/h
Temperature: 64°F , 18°C
Dew Point: 63°F , 17°C
Humidity: 94%
Barometer: 29.98 inHg , 1015.2 hPa
Clouds: Overcast
Visibility: 8 miles , 13 km
Cloud details: Overcast 600 ft
2014/09/19 14:53 KFNB 191453Z AUTO 16012KT 8SM OVC006 18/17 A2998 RMK AO2 SLP150 T01780167 50003
KVER - Boonville, Missouri, USA
Distance from station: E 96mi, 154km
Updated: Fri, 19-Sep-2014 10:35am CDT
Clear
Clear
 Wind from SE
Wind: SE 9 mph , 15 km/h
Temperature: 72°F , 22°C
Dew Point: 59°F , 15°C
Humidity: 65%
Barometer: 30.07 inHg , 1018.3 hPa
Clouds: Clear
Visibility: 10 miles , 16 km
2014/09/19 15:35 KVER 191535Z AUTO 13008KT 10SM CLR 22/15 A3007 RMK AO2 T02160147